createdAt,value
2022-08-09T00:00:11.414Z,21.74
2022-08-09T00:02:42.936Z,21.28
2022-08-09T00:06:18.918Z,21.14
2022-08-09T00:08:09.744Z,21.07
2022-08-09T00:10:40.560Z,20.84
2022-08-09T00:13:17.174Z,21.13
2022-08-09T00:15:58.922Z,21.08
2022-08-09T00:18:31.270Z,20.86
2022-08-09T00:20:58.379Z,21.36
2022-08-09T00:23:57.368Z,21.24
2022-08-09T00:26:12.320Z,20.85
2022-08-09T00:28:41.353Z,21.19
2022-08-09T00:31:30.599Z,20.96
2022-08-09T00:33:55.819Z,20.64
2022-08-09T00:36:27.131Z,20.10
2022-08-09T00:38:56.767Z,19.56
2022-08-09T00:44:14.737Z,20.74
2022-08-09T00:44:25.676Z,21.28
2022-08-09T00:46:57.740Z,21.55
2022-08-09T00:49:36.989Z,21.75
2022-08-09T00:52:17.718Z,21.65
2022-08-09T00:54:46.204Z,20.67
2022-08-09T00:57:13.721Z,20.36
2022-08-09T00:59:52.685Z,20.99
2022-08-09T01:02:22.846Z,21.26
2022-08-09T01:05:13.956Z,20.43
2022-08-09T01:08:48.776Z,21.50
2022-08-09T01:11:55.788Z,20.86
2022-08-09T01:15:01.038Z,19.80
2022-08-09T01:17:47.081Z,19.61
2022-08-09T01:20:49.502Z,19.82
2022-08-09T01:24:05.033Z,19.44
2022-08-09T01:27:08.701Z,19.11
2022-08-09T01:30:28.858Z,19.27
2022-08-09T01:33:02.434Z,19.47
2022-08-09T01:35:51.921Z,18.67
2022-08-09T01:38:35.835Z,19.83
2022-08-09T01:41:13.394Z,20.49
2022-08-09T01:43:50.899Z,19.68
2022-08-09T01:46:28.180Z,19.69
2022-08-09T01:49:10.285Z,20.73
2022-08-09T01:51:53.539Z,21.03
2022-08-09T01:54:33.004Z,21.00
2022-08-09T01:57:14.998Z,19.90
2022-08-09T01:59:52.130Z,19.81
2022-08-09T02:02:30.793Z,19.54
2022-08-09T02:05:05.653Z,19.87
2022-08-09T02:08:40.276Z,19.78
2022-08-09T02:10:50.709Z,19.72
2022-08-09T02:13:22.140Z,20.98
2022-08-09T02:15:56.410Z,19.99
2022-08-09T02:18:28.376Z,20.18
2022-08-09T02:21:09.454Z,20.69
2022-08-09T02:23:49.519Z,19.42
2022-08-09T02:26:26.722Z,19.62
2022-08-09T02:29:00.379Z,19.87
2022-08-09T02:31:40.766Z,20.37
2022-08-09T02:34:38.702Z,20.45
2022-08-09T02:37:06.733Z,20.92
2022-08-09T02:39:45.241Z,21.09
2022-08-09T02:42:24.825Z,20.57
2022-08-09T02:44:59.047Z,20.85
2022-08-09T02:47:28.769Z,20.33
2022-08-09T02:50:11.744Z,19.83
2022-08-09T02:52:57.801Z,20.19
2022-08-09T02:55:46.735Z,20.81
2022-08-09T02:58:36.304Z,20.34
2022-08-09T03:01:10.855Z,19.47
2022-08-09T03:04:16.514Z,19.88
2022-08-09T03:06:29.184Z,20.63
2022-08-09T03:08:57.581Z,19.95
2022-08-09T03:12:05.281Z,20.48
2022-08-09T03:14:14.005Z,20.50
2022-08-09T03:16:47.593Z,21.09
2022-08-09T03:19:59.240Z,20.67
2022-08-09T03:22:11.935Z,19.96
2022-08-09T03:24:52.132Z,20.59
2022-08-09T03:27:21.511Z,20.29
2022-08-09T03:29:57.595Z,20.68
2022-08-09T03:32:31.921Z,21.21
2022-08-09T03:35:00.374Z,21.08
2022-08-09T03:37:55.269Z,21.17
2022-08-09T03:40:17.038Z,21.24
2022-08-09T03:42:45.788Z,20.88
2022-08-09T03:45:13.710Z,20.96
2022-08-09T03:47:46.804Z,20.80
2022-08-09T03:50:18.717Z,21.22
2022-08-09T03:52:59.646Z,21.46
2022-08-09T03:55:27.141Z,21.53
2022-08-09T03:58:06.728Z,21.74
2022-08-09T04:00:45.762Z,21.72
2022-08-09T04:03:24.505Z,20.21
2022-08-09T04:06:04.482Z,21.11
2022-08-09T04:08:33.165Z,21.21
2022-08-09T04:11:01.407Z,20.88
2022-08-09T04:14:36.968Z,21.95
2022-08-09T04:16:19.267Z,21.79
2022-08-09T04:18:47.063Z,20.56
2022-08-09T04:21:16.104Z,19.32
2022-08-09T04:23:54.552Z,18.88
2022-08-09T04:26:25.260Z,17.80
2022-08-09T04:29:10.891Z,17.40
2022-08-09T04:31:47.124Z,18.29
2022-08-09T04:34:19.179Z,19.88
2022-08-09T04:36:57.667Z,20.48
2022-08-09T04:39:24.505Z,20.50
2022-08-09T04:41:51.338Z,20.58
2022-08-09T04:44:18.187Z,21.11
2022-08-09T04:46:58.342Z,21.44
2022-08-09T04:49:52.196Z,20.86
2022-08-09T04:52:27.501Z,21.12
2022-08-09T04:55:00.559Z,20.56
2022-08-09T04:57:58.801Z,20.57
2022-08-09T05:00:16.703Z,19.78
2022-08-09T05:02:44.295Z,19.03
2022-08-09T05:05:31.506Z,20.07
2022-08-09T05:08:05.474Z,21.14
2022-08-09T05:10:34.197Z,20.94
2022-08-09T05:13:03.793Z,21.46
2022-08-09T05:15:39.288Z,21.34
2022-08-09T05:18:38.838Z,21.55
2022-08-09T05:21:02.622Z,21.54
2022-08-09T05:23:55.697Z,21.57
2022-08-09T05:26:35.285Z,20.86
2022-08-09T05:29:04.965Z,21.71
2022-08-09T05:31:44.087Z,21.61
2022-08-09T05:34:16.944Z,21.69
2022-08-09T05:36:47.353Z,21.82
2022-08-09T05:39:21.702Z,22.16
2022-08-09T05:41:56.550Z,21.48
2022-08-09T05:44:29.191Z,22.50
2022-08-09T05:47:00.492Z,21.54
2022-08-09T05:50:30.683Z,22.17
2022-08-09T05:52:14.575Z,21.73
2022-08-09T05:54:42.269Z,21.35
2022-08-09T05:57:12.793Z,22.05
2022-08-09T05:59:41.809Z,21.53
2022-08-09T06:02:10.041Z,21.71
2022-08-09T06:04:36.991Z,21.09
2022-08-09T06:07:21.373Z,21.05
2022-08-09T06:10:01.839Z,21.50
2022-08-09T06:12:30.565Z,22.36
2022-08-09T06:15:01.009Z,22.88
2022-08-09T06:17:39.959Z,22.89
2022-08-09T06:20:08.631Z,21.55
2022-08-09T06:22:36.259Z,22.01
2022-08-09T06:25:03.976Z,23.17
2022-08-09T06:27:42.956Z,22.33
2022-08-09T06:30:16.259Z,23.21
2022-08-09T06:32:59.822Z,23.66
2022-08-09T06:35:56.044Z,24.12
2022-08-09T06:38:19.593Z,24.32
2022-08-09T06:40:58.700Z,22.77
2022-08-09T06:43:27.206Z,23.13
2022-08-09T06:46:07.540Z,22.05
2022-08-09T06:48:42.752Z,21.88
2022-08-09T06:51:14.811Z,22.12
2022-08-09T06:53:41.700Z,21.39
2022-08-09T06:56:09.628Z,21.64
2022-08-09T07:00:52.181Z,22.51
2022-08-09T07:01:27.459Z,23.71
2022-08-09T07:04:03.878Z,23.65
2022-08-09T07:06:31.061Z,23.60
2022-08-09T07:08:58.194Z,23.22
2022-08-09T07:11:25.569Z,23.77
2022-08-09T07:14:04.244Z,23.41
2022-08-09T07:16:42.790Z,23.01
2022-08-09T07:19:23.002Z,22.83
2022-08-09T07:21:57.345Z,22.76
2022-08-09T07:24:31.441Z,22.33
2022-08-09T07:27:01.312Z,22.10
2022-08-09T07:29:30.789Z,22.44
2022-08-09T07:32:05.946Z,22.87
2022-08-09T07:34:32.683Z,22.04
2022-08-09T07:37:02.831Z,22.69
2022-08-09T07:39:41.360Z,23.68
2022-08-09T07:42:09.440Z,23.92
2022-08-09T07:44:50.900Z,24.50
2022-08-09T07:47:29.615Z,25.08
2022-08-09T07:50:09.429Z,24.97
2022-08-09T07:52:38.042Z,24.65
2022-08-09T07:55:09.494Z,24.00
2022-08-09T07:57:46.942Z,23.59
2022-08-09T08:00:20.492Z,23.26
2022-08-09T08:03:01.857Z,24.39
2022-08-09T08:05:54.363Z,24.16
2022-08-09T08:09:02.065Z,23.80
2022-08-09T08:12:19.801Z,23.83
2022-08-09T08:13:55.947Z,23.85
2022-08-09T08:16:29.520Z,24.15
2022-08-09T08:18:57.895Z,24.61
2022-08-09T08:21:25.228Z,24.56
2022-08-09T08:23:56.175Z,23.47
2022-08-09T08:26:26.726Z,23.99
2022-08-09T08:29:08.940Z,23.35
2022-08-09T08:31:56.551Z,23.25
2022-08-09T08:34:25.651Z,23.09
2022-08-09T08:36:52.699Z,23.42
2022-08-09T08:39:22.053Z,23.66
2022-08-09T08:41:51.610Z,24.04
2022-08-09T08:44:26.853Z,24.85
2022-08-09T08:47:03.154Z,23.99
2022-08-09T08:49:48.390Z,24.23
2022-08-09T08:52:58.182Z,25.31
2022-08-09T08:55:06.141Z,24.82
2022-08-09T08:57:34.777Z,25.16
2022-08-09T09:00:02.428Z,26.34
2022-08-09T09:02:36.098Z,26.17
2022-08-09T09:05:10.197Z,26.38
2022-08-09T09:07:42.895Z,27.05
2022-08-09T09:10:12.282Z,28.00
2022-08-09T09:12:41.808Z,27.49
2022-08-09T09:15:09.955Z,27.70
2022-08-09T09:17:49.446Z,28.06
2022-08-09T09:20:20.596Z,27.57
2022-08-09T09:22:56.073Z,27.16
2022-08-09T09:26:01.879Z,25.16
2022-08-09T09:29:03.891Z,25.57
2022-08-09T09:32:03.570Z,26.24
2022-08-09T09:34:24.196Z,26.95
2022-08-09T09:37:00.226Z,26.42
2022-08-09T09:39:54.929Z,26.24
2022-08-09T09:42:27.667Z,26.61
2022-08-09T09:45:08.097Z,25.36
2022-08-09T09:47:47.702Z,25.69
2022-08-09T09:50:42.086Z,26.61
2022-08-09T09:53:57.628Z,26.67
2022-08-09T09:56:30.875Z,26.36
2022-08-09T09:58:58.480Z,24.97
2022-08-09T10:01:31.332Z,25.96
2022-08-09T10:04:31.036Z,26.59
2022-08-09T10:06:58.881Z,27.00
2022-08-09T10:09:49.014Z,26.63
2022-08-09T10:12:31.457Z,28.31
2022-08-09T10:15:17.233Z,26.50
2022-08-09T10:17:56.725Z,26.36
2022-08-09T10:20:32.479Z,27.48
2022-08-09T10:23:22.770Z,27.90
2022-08-09T10:26:07.956Z,28.05
2022-08-09T10:28:40.538Z,27.66
2022-08-09T10:34:10.101Z,27.93
2022-08-09T10:36:45.601Z,29.22
2022-08-09T10:39:15.553Z,29.57
2022-08-09T10:41:47.650Z,28.53
2022-08-09T10:44:21.754Z,28.55
2022-08-09T10:48:26.052Z,28.56
2022-08-09T10:50:31.283Z,29.33
2022-08-09T10:53:54.718Z,28.52
2022-08-09T10:56:28.598Z,30.63
2022-08-09T10:58:59.372Z,30.92
2022-08-09T11:03:15.623Z,31.86
2022-08-09T11:04:30.423Z,31.71
2022-08-09T11:06:59.582Z,30.32
2022-08-09T11:09:41.227Z,29.63
2022-08-09T11:12:29.970Z,29.42
2022-08-09T11:15:19.844Z,29.70
2022-08-09T11:18:02.774Z,30.13
2022-08-09T11:20:50.229Z,31.04
2022-08-09T11:23:17.069Z,29.67
2022-08-09T11:25:51.089Z,29.89
2022-08-09T11:28:38.859Z,28.15
2022-08-09T11:31:43.321Z,30.20
2022-08-09T11:34:42.887Z,30.92
2022-08-09T11:37:18.051Z,31.77
2022-08-09T11:40:06.324Z,32.37
2022-08-09T11:42:50.053Z,32.88
2022-08-09T11:45:42.109Z,31.18
2022-08-09T11:48:19.326Z,31.30
2022-08-09T11:52:49.109Z,30.69
2022-08-09T11:54:00.351Z,30.05
2022-08-09T11:56:41.904Z,29.51
2022-08-09T11:59:12.113Z,29.56
2022-08-09T12:02:16.110Z,29.17
2022-08-09T12:04:32.653Z,27.45
2022-08-09T12:07:08.397Z,28.54
2022-08-09T12:09:36.368Z,29.94
2022-08-09T12:12:12.156Z,31.12
2022-08-09T12:15:03.781Z,31.50
2022-08-09T12:17:42.882Z,30.77
2022-08-09T12:20:21.951Z,31.19
2022-08-09T12:22:58.357Z,30.93
2022-08-09T12:25:36.180Z,31.09
2022-08-09T12:29:10.435Z,31.73
2022-08-09T12:31:57.862Z,30.62
2022-08-09T12:34:31.361Z,31.11
2022-08-09T12:37:21.864Z,32.28
2022-08-09T12:40:12.097Z,31.04
2022-08-09T12:42:44.267Z,30.55
2022-08-09T12:45:32.438Z,30.62
2022-08-09T12:47:59.095Z,30.26
2022-08-09T12:50:25.980Z,30.86
2022-08-09T12:53:08.790Z,29.63
2022-08-09T12:56:15.617Z,29.95
2022-08-09T12:58:27.715Z,30.37
2022-08-09T13:00:56.456Z,31.58
2022-08-09T13:03:53.825Z,32.47
2022-08-09T13:06:42.128Z,31.47
2022-08-09T13:09:21.670Z,32.09
2022-08-09T13:12:01.920Z,31.08
2022-08-09T13:14:43.615Z,31.07
2022-08-09T13:17:25.723Z,30.14
2022-08-09T13:20:17.414Z,30.42
2022-08-09T13:23:01.762Z,28.78
2022-08-09T13:25:53.367Z,28.50
2022-08-09T13:28:33.777Z,28.90
2022-08-09T13:32:15.827Z,29.74
2022-08-09T13:33:58.816Z,29.84
2022-08-09T13:36:42.196Z,30.09
2022-08-09T13:41:19.276Z,31.39
2022-08-09T13:42:12.451Z,32.31
2022-08-09T13:44:42.676Z,32.60
2022-08-09T13:47:30.778Z,31.80
2022-08-09T13:50:12.872Z,32.53
2022-08-09T13:52:47.585Z,31.37
2022-08-09T13:55:15.354Z,31.55
2022-08-09T13:57:55.976Z,30.82
2022-08-09T14:00:28.526Z,29.57
2022-08-09T14:03:03.809Z,28.38
2022-08-09T14:06:00.375Z,29.17
2022-08-09T14:08:32.252Z,29.65
2022-08-09T14:11:00.303Z,29.41
2022-08-09T14:14:23.292Z,29.86
2022-08-09T14:16:18.964Z,30.46
2022-08-09T14:18:49.471Z,30.05
2022-08-09T14:21:24.091Z,30.53
2022-08-09T14:23:54.933Z,30.80
2022-08-09T14:26:30.178Z,31.31
2022-08-09T14:29:03.436Z,30.69
2022-08-09T14:31:36.071Z,31.59
2022-08-09T14:34:31.112Z,31.30
2022-08-09T14:37:02.198Z,31.88
2022-08-09T14:39:40.349Z,30.82
2022-08-09T14:42:29.088Z,29.30
2022-08-09T14:46:39.171Z,29.72
2022-08-09T14:47:57.267Z,30.90
2022-08-09T14:50:32.323Z,32.36
2022-08-09T14:53:11.277Z,33.44
2022-08-09T14:55:47.680Z,32.75
2022-08-09T14:58:16.756Z,31.98
2022-08-09T15:00:47.982Z,31.82
2022-08-09T15:03:20.403Z,32.40
2022-08-09T15:05:51.434Z,32.76
2022-08-09T15:08:24.210Z,33.23
2022-08-09T15:11:00.393Z,33.59
2022-08-09T15:13:29.817Z,31.98
2022-08-09T15:16:15.598Z,31.67
2022-08-09T15:18:42.301Z,31.14
2022-08-09T15:22:01.268Z,30.90
2022-08-09T15:24:09.023Z,30.71
2022-08-09T15:26:46.433Z,30.58
2022-08-09T15:30:57.629Z,30.98
2022-08-09T15:32:00.773Z,30.30
2022-08-09T15:34:34.223Z,31.15
2022-08-09T15:37:03.876Z,30.81
2022-08-09T15:39:32.267Z,31.94
2022-08-09T15:42:13.113Z,33.02
2022-08-09T15:44:41.853Z,33.14
2022-08-09T15:47:13.992Z,33.27
2022-08-09T15:49:41.334Z,33.09
2022-08-09T15:52:27.631Z,34.19
2022-08-09T15:54:54.518Z,33.74
2022-08-09T15:57:35.680Z,34.14
2022-08-09T16:00:24.361Z,33.96
2022-08-09T16:02:56.087Z,32.56
2022-08-09T16:05:47.238Z,33.97
2022-08-09T16:08:30.114Z,35.59
2022-08-09T16:11:04.685Z,34.78
2022-08-09T16:14:04.216Z,34.72
2022-08-09T16:16:26.166Z,34.83
2022-08-09T16:18:55.017Z,33.79
2022-08-09T16:21:25.844Z,35.03
2022-08-09T16:23:58.751Z,36.97
2022-08-09T16:26:34.901Z,36.99
2022-08-09T16:29:21.313Z,36.49
2022-08-09T16:32:18.961Z,37.65
2022-08-09T16:34:57.896Z,37.33
2022-08-09T16:37:55.766Z,34.30
2022-08-09T16:40:20.711Z,32.14
2022-08-09T16:43:04.349Z,31.67
2022-08-09T16:45:32.064Z,32.32
2022-08-09T16:48:39.566Z,32.73
2022-08-09T16:50:58.742Z,33.20
2022-08-09T16:53:32.298Z,34.28
2022-08-09T16:56:03.625Z,34.08
2022-08-09T16:58:36.754Z,35.14
2022-08-09T17:01:04.635Z,35.00
2022-08-09T17:03:31.652Z,35.11
2022-08-09T17:06:07.321Z,36.54
2022-08-09T17:09:02.932Z,36.42
2022-08-09T17:11:40.430Z,35.87
2022-08-09T17:14:26.312Z,36.85
2022-08-09T17:17:01.157Z,36.50
2022-08-09T17:19:47.272Z,37.22
2022-08-09T17:22:35.718Z,35.45
2022-08-09T17:25:10.019Z,34.48
2022-08-09T17:27:39.647Z,34.01
2022-08-09T17:30:16.431Z,32.56
2022-08-09T17:32:45.268Z,34.02
2022-08-09T17:35:14.236Z,32.58
2022-08-09T17:38:11.705Z,31.35
2022-08-09T17:40:32.117Z,30.93
2022-08-09T17:43:32.991Z,30.17
2022-08-09T17:46:03.681Z,29.16
2022-08-09T17:48:40.173Z,28.22
2022-08-09T17:51:18.709Z,28.37
2022-08-09T17:53:54.765Z,28.53
2022-08-09T17:56:29.292Z,28.12
2022-08-09T17:59:15.963Z,28.18
2022-08-09T18:02:07.606Z,27.26
2022-08-09T18:04:34.826Z,27.68
2022-08-09T18:07:04.768Z,26.80
2022-08-09T18:09:40.687Z,26.95
2022-08-09T18:12:17.903Z,26.37
2022-08-09T18:14:56.563Z,27.50
2022-08-09T18:18:02.705Z,27.74
2022-08-09T18:20:54.251Z,27.92
2022-08-09T18:23:04.868Z,28.36
2022-08-09T18:25:50.563Z,28.01
2022-08-09T18:30:42.992Z,27.62
2022-08-09T18:31:14.513Z,26.79
2022-08-09T18:33:43.274Z,27.28
2022-08-09T18:36:26.040Z,26.76
2022-08-09T18:39:07.246Z,27.00
2022-08-09T18:41:52.811Z,26.86
2022-08-09T18:44:25.701Z,26.69
2022-08-09T18:47:07.923Z,25.74
2022-08-09T18:49:43.385Z,25.43
2022-08-09T18:52:16.103Z,25.58
2022-08-09T18:54:52.688Z,25.80
2022-08-09T18:57:22.787Z,25.89
2022-08-09T18:59:55.310Z,26.02
2022-08-09T19:02:32.338Z,25.35
2022-08-09T19:05:14.215Z,26.04
2022-08-09T19:07:59.021Z,26.48
2022-08-09T19:10:29.549Z,26.14
2022-08-09T19:13:20.727Z,26.38
2022-08-09T19:15:55.794Z,26.06
2022-08-09T19:18:34.063Z,25.38
2022-08-09T19:21:09.117Z,24.93
2022-08-09T19:24:32.368Z,24.73
2022-08-09T19:26:31.014Z,24.77
2022-08-09T19:29:15.448Z,24.75
2022-08-09T19:31:51.125Z,24.97
2022-08-09T19:34:22.880Z,24.98
2022-08-09T19:36:56.057Z,25.16
2022-08-09T19:40:02.555Z,24.77
2022-08-09T19:42:19.590Z,24.68
2022-08-09T19:44:51.468Z,24.11
2022-08-09T19:47:23.332Z,24.26
2022-08-09T19:50:08.711Z,23.73
2022-08-09T19:52:37.678Z,23.58
2022-08-09T19:55:16.755Z,24.18
2022-08-09T19:57:46.398Z,24.14
2022-08-09T20:00:16.202Z,24.17
2022-08-09T20:04:09.629Z,23.90
2022-08-09T20:05:46.718Z,24.01
2022-08-09T20:08:33.358Z,24.20
2022-08-09T20:11:04.497Z,23.26
2022-08-09T20:13:37.058Z,23.80
2022-08-09T20:16:37.459Z,23.40
2022-08-09T20:19:42.622Z,23.77
2022-08-09T20:21:56.588Z,23.71
2022-08-09T20:24:32.069Z,23.74
2022-08-09T20:27:07.965Z,23.36
2022-08-09T20:29:37.289Z,23.66
2022-08-09T20:32:29.736Z,23.32
2022-08-09T20:34:59.425Z,23.88
2022-08-09T20:38:08.700Z,23.68
2022-08-09T20:40:19.272Z,23.67
2022-08-09T20:43:00.457Z,23.98
2022-08-09T20:45:59.592Z,23.83
2022-08-09T20:48:31.056Z,24.26
2022-08-09T20:51:01.016Z,24.36
2022-08-09T20:53:35.838Z,24.06
2022-08-09T20:56:08.811Z,24.21
2022-08-09T20:58:36.089Z,24.39
2022-08-09T21:01:33.225Z,24.07
2022-08-09T21:05:49.166Z,24.59
2022-08-09T21:06:45.402Z,23.91
2022-08-09T21:09:13.738Z,24.39
2022-08-09T21:14:31.216Z,24.50
2022-08-09T21:17:00.393Z,23.84
2022-08-09T21:20:17.938Z,23.50
2022-08-09T21:22:38.100Z,23.63
2022-08-09T21:25:20.947Z,23.63
2022-08-09T21:27:52.625Z,24.04
2022-08-09T21:30:22.131Z,24.06
2022-08-09T21:32:51.182Z,24.16
2022-08-09T21:35:18.866Z,23.59
2022-08-09T21:37:59.229Z,23.21
2022-08-09T21:40:30.427Z,22.63
2022-08-09T21:43:00.855Z,22.59
2022-08-09T21:45:27.976Z,22.82
2022-08-09T21:47:55.655Z,22.54
2022-08-09T21:50:33.827Z,23.08
2022-08-09T21:53:15.604Z,23.45
2022-08-09T21:55:54.319Z,22.64
2022-08-09T21:58:21.081Z,22.74
2022-08-09T22:00:55.909Z,22.64
2022-08-09T22:03:25.477Z,22.92
2022-08-09T22:05:54.256Z,23.00
2022-08-09T22:08:22.966Z,23.06
2022-08-09T22:11:00.750Z,23.21
2022-08-09T22:13:42.285Z,23.37
2022-08-09T22:16:11.564Z,22.70
2022-08-09T22:18:54.390Z,22.77
2022-08-09T22:21:49.660Z,22.77
2022-08-09T22:24:20.854Z,22.45
2022-08-09T22:29:19.212Z,22.70
2022-08-09T22:31:56.249Z,21.74
2022-08-09T22:34:26.693Z,21.81
2022-08-09T22:36:58.784Z,22.11
2022-08-09T22:39:55.706Z,21.73
2022-08-09T22:42:20.794Z,21.55
2022-08-09T22:45:00.178Z,21.57
2022-08-09T22:48:17.012Z,22.05
2022-08-09T22:50:23.283Z,21.46
2022-08-09T22:52:54.953Z,21.32
2022-08-09T22:55:39.506Z,21.67
2022-08-09T22:58:20.433Z,21.22
2022-08-09T23:01:00.561Z,21.73
2022-08-09T23:03:31.220Z,21.66
2022-08-09T23:06:35.158Z,20.89
2022-08-09T23:09:05.776Z,20.60
2022-08-09T23:11:32.742Z,20.82
2022-08-09T23:13:59.648Z,21.30
2022-08-09T23:16:26.309Z,21.19
2022-08-09T23:18:52.961Z,20.98
2022-08-09T23:21:24.553Z,20.87
2022-08-09T23:24:05.358Z,20.82
2022-08-09T23:26:34.701Z,20.71
2022-08-09T23:29:01.370Z,20.36
2022-08-09T23:31:28.059Z,20.52
2022-08-09T23:33:54.672Z,20.57
2022-08-09T23:36:21.316Z,20.17
2022-08-09T23:38:48.862Z,20.26
2022-08-09T23:41:28.530Z,20.28
2022-08-09T23:44:01.899Z,20.01
2022-08-09T23:46:30.698Z,19.91
2022-08-09T23:48:58.687Z,20.13
2022-08-09T23:51:25.580Z,20.07
2022-08-09T23:53:55.090Z,19.87
2022-08-09T23:56:52.118Z,20.13
2022-08-09T23:59:09.103Z,20.04
